Time;durP1;ratioP1;P1;durP2;ratioP2;P2;SDS_P1;SDS_P2;PMS_P1;PMS_P2;Temp;Humidity;BMP_temperature;BMP_pressure;BME280_temperature;BME280_humidity;BME280_pressure;Samples;Min_cycle;Max_cycle;Signal;HPM_P1;HPM_P2
2021/09/25 00:02:38;;;;;;;9.27;5.83;;;6.40;99.90;;;6.81;100.00;95318.00;2271077;55;26090;-58
2021/09/25 00:05:27;;;;;;;7.97;6.20;;;6.40;99.90;;;6.76;100.00;95333.00;2267839;56;26597;-58
2021/09/25 00:11:11;;;;;;;7.20;5.73;;;6.30;99.90;;;6.84;100.00;95310.00;2218919;57;34182;-58
2021/09/25 00:13:59;;;;;;;7.87;5.33;;;6.30;99.90;;;6.79;100.00;95325.00;2189558;57;26835;-57
2021/09/25 00:16:45;;;;;;;5.57;4.87;;;6.40;99.90;;;6.89;100.00;95323.00;2198006;58;26224;-57
2021/09/25 00:19:32;;;;;;;6.90;5.50;;;6.30;99.90;;;6.83;100.00;95327.00;2195516;58;26674;-57
2021/09/25 00:22:19;;;;;;;7.07;5.60;;;6.20;99.90;;;6.59;100.00;95316.00;2227780;56;26127;-57
2021/09/25 00:25:07;;;;;;;9.03;5.10;;;6.10;99.90;;;6.51;100.00;95322.00;2439622;56;26183;-57
2021/09/25 00:27:54;;;;;;;7.13;6.03;;;6.10;99.90;;;6.58;100.00;95323.00;2215098;56;26597;-57
2021/09/25 00:30:40;;;;;;;9.57;6.47;;;6.00;99.90;;;6.52;100.00;95325.00;2214406;56;26122;-58
2021/09/25 00:33:27;;;;;;;6.10;5.50;;;6.10;99.90;;;6.55;100.00;95320.00;2214582;56;26139;-57
2021/09/25 00:36:14;;;;;;;6.47;5.40;;;6.20;99.90;;;6.72;100.00;95320.00;2213387;56;26206;-58
2021/09/25 00:39:01;;;;;;;7.87;5.53;;;6.10;99.90;;;6.61;100.00;95319.00;2214140;56;26119;-57
2021/09/25 00:41:47;;;;;;;6.60;4.90;;;6.00;99.90;;;6.45;100.00;95316.00;2214433;56;26163;-57
2021/09/25 00:44:34;;;;;;;6.47;5.70;;;5.90;99.90;;;6.40;100.00;95318.00;2214022;56;26663;-57
2021/09/25 00:47:21;;;;;;;5.83;5.20;;;5.90;99.90;;;6.38;100.00;95320.00;2215794;56;26280;-57
2021/09/25 00:50:10;;;;;;;7.97;5.40;;;5.90;99.90;;;6.39;100.00;95320.00;2215400;57;26746;-57
2021/09/25 00:52:56;;;;;;;8.10;5.87;;;5.90;99.90;;;6.47;100.00;95315.00;2434532;56;26159;-57
2021/09/25 00:55:42;;;;;;;6.43;5.13;;;6.00;99.90;;;6.52;100.00;95313.00;2434589;56;26174;-58
2021/09/25 00:58:29;;;;;;;5.10;4.60;;;6.00;99.90;;;6.53;100.00;95322.00;2215534;57;26146;-57
2021/09/25 01:01:15;;;;;;;5.10;4.60;;;6.10;99.90;;;6.60;100.00;95312.00;2447943;56;26097;-58
2021/09/25 01:04:02;;;;;;;5.53;4.70;;;6.10;99.90;;;6.59;100.00;95316.00;2211186;57;26223;-57
2021/09/25 01:06:48;;;;;;;5.67;4.63;;;6.10;99.90;;;6.55;100.00;95304.00;2210023;57;26148;-58
2021/09/25 01:12:31;;;;;;;4.90;4.40;;;6.10;99.90;;;6.48;100.00;95291.00;2237877;56;33398;-57
2021/09/25 01:18:15;;;;;;;5.93;4.60;;;5.70;99.90;;;6.32;100.00;95297.00;2232130;56;33429;-58
2021/09/25 01:21:11;;;;;;;5.27;4.60;;;5.70;99.90;;;6.21;100.00;95317.00;2456681;56;26204;-57
2021/09/25 01:23:57;;;;;;;5.83;4.70;;;5.60;99.90;;;6.11;100.00;95316.00;2444006;56;26216;-58
2021/09/25 01:26:43;;;;;;;7.83;5.23;;;5.50;99.90;;;5.98;100.00;95315.00;2420150;56;26617;-58
2021/09/25 01:29:32;;;;;;;6.43;5.00;;;5.50;99.90;;;5.99;100.00;95320.00;2218201;57;26225;-58
2021/09/25 01:32:19;;;;;;;7.10;5.00;;;5.50;99.90;;;6.02;100.00;95317.00;2210252;57;26197;-58
2021/09/25 01:35:08;;;;;;;5.93;5.03;;;5.60;99.90;;;6.11;100.00;95321.00;2434160;56;26863;-58
2021/09/25 01:37:56;;;;;;;8.40;5.07;;;5.70;99.90;;;6.19;100.00;95317.00;2213545;56;25695;-57
2021/09/25 01:40:42;;;;;;;6.30;5.10;;;5.70;99.90;;;6.18;100.00;95307.00;2243501;56;26120;-57
2021/09/25 01:43:30;;;;;;;5.67;5.00;;;5.70;99.90;;;6.12;100.00;95308.00;2248232;56;26631;-57
2021/09/25 01:46:19;;;;;;;5.77;5.00;;;5.70;99.90;;;6.22;100.00;95305.00;2474395;55;26140;-58
2021/09/25 01:49:06;;;;;;;5.17;4.67;;;5.80;99.90;;;6.30;100.00;95305.00;2247972;55;26088;-57
2021/09/25 01:51:53;;;;;;;10.10;4.90;;;5.80;99.90;;;6.29;100.00;95303.00;2476067;55;26112;-57
2021/09/25 01:54:39;;;;;;;19.00;6.60;;;5.70;99.90;;;6.16;100.00;95308.00;2245941;55;26627;-58
2021/09/25 01:57:25;;;;;;;24.83;7.00;;;5.70;99.90;;;6.08;100.00;95317.00;2470258;55;26128;-58
2021/09/25 02:00:15;;;;;;;33.60;7.30;;;5.70;99.90;;;6.02;100.00;95312.00;2249963;56;26530;-57
2021/09/25 02:03:04;;;;;;;24.70;7.47;;;5.70;99.90;;;5.97;100.00;95314.00;2453939;55;26160;-58
2021/09/25 02:05:50;;;;;;;10.13;6.77;;;5.70;99.90;;;5.96;100.00;95308.00;2215101;57;26272;-57
2021/09/25 02:08:40;;;;;;;10.37;5.73;;;5.70;99.90;;;6.16;100.00;95314.00;2433948;56;26647;-58
2021/09/25 02:11:27;;;;;;;15.37;7.33;;;5.80;99.90;;;6.30;100.00;95312.00;2214252;57;26209;-58
2021/09/25 02:14:14;;;;;;;14.37;6.33;;;5.80;99.90;;;6.26;100.00;95308.00;2214381;57;26579;-58
2021/09/25 02:17:00;;;;;;;22.57;7.00;;;5.80;99.90;;;6.18;100.00;95313.00;2213579;57;26157;-58
2021/09/25 02:19:47;;;;;;;19.07;6.70;;;5.70;99.90;;;6.19;100.00;95312.00;2191072;56;26277;-58
2021/09/25 02:22:34;;;;;;;17.60;6.20;;;5.70;99.90;;;6.19;100.00;95312.00;2198592;57;26143;-57
2021/09/25 02:25:20;;;;;;;18.50;7.07;;;5.70;99.90;;;6.08;100.00;95313.00;2190827;58;26164;-58
2021/09/25 02:28:07;;;;;;;14.67;7.33;;;5.70;99.90;;;6.11;100.00;95316.00;2203644;56;26167;-58
2021/09/25 02:30:54;;;;;;;9.20;6.80;;;5.70;99.90;;;6.11;100.00;95314.00;2188114;57;26155;-57
2021/09/25 02:33:41;;;;;;;8.80;6.60;;;5.60;99.90;;;6.03;100.00;95324.00;2188407;57;26878;-57
2021/09/25 02:36:27;;;;;;;8.23;6.33;;;5.60;99.90;;;6.08;100.00;95319.00;2188123;57;26650;-57
2021/09/25 02:39:14;;;;;;;7.60;5.53;;;5.60;99.90;;;6.14;100.00;95323.00;2188581;57;26353;-57
2021/09/25 02:42:01;;;;;;;7.00;5.67;;;5.40;99.90;;;6.00;100.00;95322.00;2187997;57;26234;-57
2021/09/25 02:44:47;;;;;;;6.37;5.40;;;5.40;99.90;;;5.89;100.00;95321.00;2209035;56;26125;-57
2021/09/25 02:47:33;;;;;;;7.47;5.73;;;5.30;99.90;;;5.76;100.00;95319.00;2210843;57;26233;-58
2021/09/25 02:50:20;;;;;;;7.23;4.90;;;5.20;99.90;;;5.70;100.00;95319.00;2208292;57;26168;-57
2021/09/25 02:53:07;;;;;;;8.43;5.30;;;5.20;99.90;;;5.57;100.00;95311.00;2428002;56;26116;-58
2021/09/25 02:55:54;;;;;;;6.57;5.23;;;5.10;99.90;;;5.57;100.00;95324.00;2210140;56;26136;-58
2021/09/25 02:58:40;;;;;;;8.90;5.23;;;5.10;99.90;;;5.57;100.00;95327.00;2210854;56;26509;-58
2021/09/25 03:01:27;;;;;;;6.27;5.57;;;5.00;99.90;;;5.51;100.00;95318.00;2210642;56;26169;-59
2021/09/25 03:04:13;;;;;;;6.10;5.20;;;5.20;99.90;;;5.74;100.00;95315.00;2427806;56;26359;-57
2021/09/25 03:07:00;;;;;;;5.57;5.00;;;5.10;99.90;;;5.61;100.00;95315.00;2209484;56;26137;-57
2021/09/25 03:09:47;;;;;;;5.10;4.57;;;5.00;99.90;;;5.45;100.00;95310.00;2209724;56;26153;-57
2021/09/25 03:12:34;;;;;;;7.17;4.80;;;5.00;99.90;;;5.49;100.00;95312.00;2209066;56;26725;-58
2021/09/25 03:15:22;;;;;;;5.73;5.00;;;5.00;99.90;;;5.59;100.00;95314.00;2428043;56;26611;-57
2021/09/25 03:18:09;;;;;;;7.57;5.27;;;5.00;99.90;;;5.59;100.00;95313.00;2190053;57;26668;-57
2021/09/25 03:20:55;;;;;;;6.00;5.20;;;5.00;99.90;;;5.48;100.00;95320.00;2190094;57;26138;-58
2021/09/25 03:23:42;;;;;;;5.77;4.87;;;4.90;99.90;;;5.38;100.00;95316.00;2403382;57;26139;-57
2021/09/25 03:26:29;;;;;;;6.00;5.37;;;4.90;99.90;;;5.33;100.00;95316.00;2189796;57;26814;-57
2021/09/25 03:29:16;;;;;;;6.33;5.03;;;4.90;99.90;;;5.30;100.00;95321.00;2403037;57;26159;-60
2021/09/25 03:32:03;;;;;;;6.73;4.80;;;4.90;99.90;;;5.37;100.00;95317.00;2190147;57;26186;-60
2021/09/25 03:34:49;;;;;;;5.80;4.63;;;5.00;99.90;;;5.47;100.00;95316.00;2431436;56;26133;-57
2021/09/25 03:37:35;;;;;;;5.47;4.57;;;5.00;99.90;;;5.51;100.00;95313.00;2213483;57;26144;-57
2021/09/25 03:40:23;;;;;;;7.23;4.93;;;5.00;99.90;;;5.47;100.00;95313.00;2213283;57;26231;-57
2021/09/25 03:43:09;;;;;;;16.87;5.77;;;4.90;99.90;;;5.42;100.00;95311.00;2212705;57;26705;-57
2021/09/25 03:45:57;;;;;;;10.03;6.07;;;4.90;99.90;;;5.27;100.00;95309.00;2212936;57;26704;-57
2021/09/25 03:48:43;;;;;;;14.20;5.53;;;4.80;99.90;;;5.21;100.00;95309.00;2212775;57;26200;-57
2021/09/25 03:51:30;;;;;;;8.90;5.67;;;4.90;99.90;;;5.31;100.00;95307.00;2433268;56;26116;-57
2021/09/25 03:54:16;;;;;;;7.47;5.67;;;4.90;99.90;;;5.38;100.00;95301.00;2432661;56;26140;-57
2021/09/25 03:57:04;;;;;;;7.80;4.90;;;4.80;99.90;;;5.22;100.00;95300.00;2212661;57;26208;-57
2021/09/25 03:59:50;;;;;;;6.73;5.77;;;4.70;99.90;;;5.06;100.00;95302.00;2214489;57;26569;-57
2021/09/25 04:05:34;;;;;;;8.30;5.73;;;4.70;99.90;;;5.36;100.00;95292.00;2253104;54;33841;-57
2021/09/25 04:08:21;;;;;;;9.13;5.87;;;4.90;99.90;;;5.43;100.00;95299.00;2259497;55;26213;-57
2021/09/25 04:11:08;;;;;;;7.50;5.30;;;4.90;99.90;;;5.44;100.00;95301.00;2258891;55;26142;-57
2021/09/25 04:13:54;;;;;;;7.50;5.70;;;4.90;99.90;;;5.43;100.00;95305.00;2259160;56;26161;-57
2021/09/25 04:16:41;;;;;;;6.10;5.07;;;4.80;99.90;;;5.15;100.00;95311.00;2259436;55;26200;-57
2021/09/25 04:19:28;;;;;;;7.27;5.40;;;4.70;99.90;;;5.11;100.00;95304.00;2260000;54;26112;-57
2021/09/25 04:22:15;;;;;;;6.57;5.73;;;4.80;99.90;;;5.21;100.00;95299.00;2468221;55;26595;-58
2021/09/25 04:25:01;;;;;;;5.80;5.13;;;4.80;99.90;;;5.32;100.00;95296.00;2454415;55;26126;-57
2021/09/25 04:27:51;;;;;;;6.10;5.07;;;4.70;99.90;;;5.16;100.00;95298.00;2242476;55;26093;-57
2021/09/25 04:30:40;;;;;;;6.37;4.73;;;4.60;99.90;;;5.02;100.00;95298.00;2495732;55;26625;-58
2021/09/25 04:33:26;;;;;;;6.70;5.07;;;4.50;99.90;;;4.91;100.00;95290.00;2266686;55;26159;-58
2021/09/25 04:36:13;;;;;;;5.83;5.13;;;4.50;99.90;;;4.99;100.00;95288.00;2495675;55;26213;-57
2021/09/25 04:39:00;;;;;;;6.77;4.70;;;4.50;99.90;;;5.13;100.00;95286.00;2266613;55;26222;-57
2021/09/25 04:41:46;;;;;;;6.50;4.60;;;4.60;99.90;;;5.18;100.00;95278.00;2495834;55;26188;-58
2021/09/25 04:44:33;;;;;;;5.87;4.67;;;4.70;99.90;;;5.17;100.00;95283.00;2266755;55;26126;-58
2021/09/25 04:47:19;;;;;;;5.50;4.43;;;4.50;99.90;;;4.99;100.00;95290.00;2496128;55;26106;-58
2021/09/25 04:53:09;;;;;;;5.93;5.20;;;4.40;99.90;;;5.04;100.00;95280.00;2200175;56;33553;-58
2021/09/25 04:55:55;;;;;;;6.03;5.13;;;4.30;99.90;;;4.82;100.00;95295.00;2208956;57;26234;-59
2021/09/25 04:58:42;;;;;;;6.43;5.47;;;4.30;99.90;;;4.83;100.00;95297.00;2426104;57;26699;-57
2021/09/25 05:01:31;;;;;;;6.33;4.90;;;4.30;99.90;;;4.81;100.00;95300.00;2211463;58;26174;-58
2021/09/25 05:04:18;;;;;;;7.50;4.37;;;4.30;99.90;;;4.89;100.00;95292.00;2425961;56;26569;-57
2021/09/25 05:10:02;;;;;;;6.27;4.43;;;4.40;99.90;;;5.12;100.00;95274.00;2245698;56;33146;-57
2021/09/25 05:12:49;;;;;;;5.77;4.43;;;4.50;99.90;;;5.02;100.00;95285.00;2231006;58;26603;-57
2021/09/25 05:15:35;;;;;;;5.60;4.27;;;4.50;99.90;;;4.92;100.00;95300.00;2231316;58;26262;-58
2021/09/25 05:21:19;;;;;;;5.67;4.60;;;4.40;99.90;;;4.99;100.00;95275.00;2232385;56;33252;-58
2021/09/25 05:24:07;;;;;;;8.40;4.50;;;4.40;99.90;;;4.83;100.00;95292.00;2184662;57;26188;-58
2021/09/25 05:26:55;;;;;;;5.03;4.33;;;4.40;99.90;;;4.84;100.00;95292.00;2185667;57;26197;-58
2021/09/25 05:29:41;;;;;;;5.60;4.83;;;4.40;99.90;;;4.84;100.00;95302.00;2398524;57;26170;-57
2021/09/25 05:32:27;;;;;;;7.47;5.07;;;4.30;99.90;;;4.87;100.00;95309.00;2186161;57;26156;-57
2021/09/25 05:35:14;;;;;;;6.40;4.87;;;4.30;99.90;;;4.82;100.00;95304.00;2398281;57;26096;-57
2021/09/25 05:38:00;;;;;;;8.33;4.83;;;4.40;99.90;;;4.92;100.00;95294.00;2185362;57;26332;-58
2021/09/25 05:40:47;;;;;;;7.43;4.60;;;4.50;99.90;;;4.98;100.00;95294.00;2184171;57;26641;-58
2021/09/25 05:43:33;;;;;;;5.30;4.80;;;4.50;99.90;;;5.14;100.00;95298.00;2184171;58;26175;-57
2021/09/25 05:46:20;;;;;;;5.50;4.60;;;4.60;99.90;;;5.13;100.00;95296.00;2186344;57;26575;-57
2021/09/25 05:49:06;;;;;;;8.80;4.87;;;4.70;99.90;;;5.24;100.00;95288.00;2210291;56;25560;-58
2021/09/25 05:51:53;;;;;;;7.37;4.70;;;4.80;99.90;;;5.42;100.00;95290.00;2209732;56;26671;-57
2021/09/25 05:54:40;;;;;;;6.97;5.80;;;4.90;99.90;;;5.39;100.00;95295.00;2211087;56;26120;-58
2021/09/25 05:57:26;;;;;;;10.40;7.57;;;4.90;99.90;;;5.38;100.00;95301.00;2211503;56;26096;-57
2021/09/25 06:00:15;;;;;;;9.87;7.50;;;4.90;99.90;;;5.37;100.00;95309.00;2413112;55;26233;-58
2021/09/25 06:03:01;;;;;;;11.43;8.40;;;5.00;99.90;;;5.59;100.00;95307.00;2204721;56;26104;-57
2021/09/25 06:05:48;;;;;;;9.27;6.53;;;5.10;99.90;;;5.60;100.00;95314.00;2428450;56;26216;-58
2021/09/25 06:11:31;;;;;;;8.63;6.53;;;5.20;99.90;;;6.06;100.00;95298.00;2232202;56;33453;-58
2021/09/25 06:14:17;;;;;;;7.60;6.00;;;5.50;99.90;;;6.04;100.00;95310.00;2206304;56;26201;-58
2021/09/25 06:20:01;;;;;;;9.17;7.20;;;5.70;99.90;;;6.49;100.00;95284.00;2255222;54;33345;-58
2021/09/25 06:22:48;;;;;;;10.57;7.47;;;5.90;99.90;;;6.48;100.00;95298.00;2235746;56;26639;-57
2021/09/25 06:25:35;;;;;;;7.23;6.23;;;6.00;99.90;;;6.58;100.00;95298.00;2235741;56;26216;-58
2021/09/25 06:28:22;;;;;;;7.47;6.27;;;6.10;99.90;;;6.59;100.00;95295.00;2235186;56;26186;-58
2021/09/25 06:31:08;;;;;;;8.23;6.60;;;6.20;99.90;;;6.70;100.00;95293.00;2235163;56;26247;-57
2021/09/25 06:33:55;;;;;;;7.47;6.40;;;6.30;99.90;;;6.85;100.00;95292.00;2236504;56;26508;-57
2021/09/25 06:36:41;;;;;;;7.87;6.30;;;6.40;99.90;;;6.96;100.00;95290.00;2236480;56;26601;-58
2021/09/25 06:39:28;;;;;;;14.73;10.70;;;6.60;99.90;;;7.05;100.00;95284.00;2235070;56;26156;-57
2021/09/25 06:42:14;;;;;;;13.43;10.33;;;6.80;99.90;;;7.30;100.00;95289.00;2238755;56;26883;-57
2021/09/25 06:45:01;;;;;;;10.13;8.27;;;7.00;99.90;;;7.60;100.00;95288.00;2260734;55;26248;-57
2021/09/25 06:47:48;;;;;;;11.93;8.87;;;7.30;99.90;;;8.34;100.00;95288.00;2270290;55;26086;-59
2021/09/25 06:50:35;;;;;;;9.27;6.87;;;8.20;99.90;;;9.80;100.00;95291.00;2263443;56;26149;-57
2021/09/25 06:53:21;;;;;;;5.40;4.70;;;9.60;99.90;;;11.58;100.00;95293.00;2494330;55;26129;-59
2021/09/25 06:56:08;;;;;;;4.63;4.13;;;11.10;99.90;;;13.28;100.00;95281.00;2265354;56;26077;-58
2021/09/25 06:58:54;;;;;;;3.90;3.50;;;12.30;99.90;;;14.94;100.00;95254.00;2501134;55;26705;-58
2021/09/25 07:01:40;;;;;;;4.03;3.15;;;13.90;99.90;;;17.19;100.00;95250.00;2265574;55;26293;-59
2021/09/25 07:07:24;;;;;;;10.68;9.35;;;17.60;99.90;;;21.56;100.00;95253.00;2253665;55;33842;-61
2021/09/25 07:10:14;;;;;;;7.80;6.97;;;19.40;99.90;;;22.85;100.00;95260.00;2259451;56;26146;-58
2021/09/25 07:13:01;;;;;;;6.57;5.97;;;20.40;99.90;;;23.90;100.00;95254.00;2247186;56;26244;-58
2021/09/25 07:15:48;;;;;;;3.58;3.25;;;21.00;99.90;;;23.62;100.00;95244.00;2238078;56;26132;-58
2021/09/25 07:18:34;;;;;;;3.00;2.70;;;21.20;99.90;;;23.48;100.00;95248.00;2234798;56;26089;-58
2021/09/25 07:21:21;;;;;;;4.90;2.47;;;21.70;99.90;;;24.09;100.00;95247.00;2463653;55;26162;-58
2021/09/25 07:24:07;;;;;;;3.20;2.50;;;21.40;99.90;;;23.61;100.00;95256.00;2257001;55;26124;-59
2021/09/25 07:26:54;;;;;;;2.70;2.50;;;21.00;99.90;;;23.55;100.00;95257.00;2488482;55;26185;-58
2021/09/25 07:29:40;;;;;;;2.60;2.30;;;20.80;99.90;;;23.80;100.00;95259.00;2261000;56;26111;-58
2021/09/25 07:32:27;;;;;;;2.53;2.33;;;20.70;99.90;;;24.15;100.00;95254.00;2496632;55;26553;-57
2021/09/25 07:35:15;;;;;;;4.53;2.70;;;21.20;99.90;;;24.52;100.00;95265.00;2261434;56;26237;-58
2021/09/25 07:38:02;;;;;;;2.58;2.37;;;21.10;99.90;;;24.61;97.71;95268.00;2489730;55;26711;-58
2021/09/25 07:40:48;;;;;;;2.55;2.35;;;22.00;99.90;;;25.48;97.34;95272.00;2266744;56;25870;-58
2021/09/25 07:43:35;;;;;;;2.78;2.47;;;22.10;99.90;;;25.66;93.48;95260.00;2266156;54;25178;-58
2021/09/25 07:46:21;;;;;;;2.65;2.45;;;22.30;99.90;;;26.36;92.00;95270.00;2486615;55;25085;-56
2021/09/25 07:49:08;;;;;;;2.55;2.35;;;22.60;99.90;;;26.76;88.78;95269.00;2257949;57;26229;-56
2021/09/25 07:51:55;;;;;;;2.90;2.70;;;23.10;99.90;;;27.54;86.68;95275.00;2258301;57;26654;-56
2021/09/25 07:54:41;;;;;;;3.28;2.97;;;23.50;99.90;;;28.10;77.78;95265.00;2258855;57;25191;-55
2021/09/25 07:57:28;;;;;;;3.05;2.75;;;23.70;99.90;;;28.31;74.08;95262.00;2257571;57;25217;-56
2021/09/25 08:03:14;;;;;;;3.78;3.03;;;25.00;99.90;;;28.79;74.05;95271.00;2269602;56;32387;-58
2021/09/25 08:06:01;;;;;;;3.10;2.83;;;25.00;99.90;;;28.64;71.07;95266.00;2235329;56;26689;-58
2021/09/25 08:08:47;;;;;;;4.25;3.17;;;25.30;99.90;;;28.87;77.12;95264.00;2227558;56;25163;-58
2021/09/25 08:11:34;;;;;;;3.62;3.30;;;25.20;99.90;;;29.37;72.96;95266.00;2225024;56;26602;-56
2021/09/25 08:14:21;;;;;;;3.30;3.00;;;25.90;99.90;;;30.09;66.78;95272.00;2208012;57;25203;-55
2021/09/25 08:20:07;;;;;;;3.62;3.17;;;26.10;99.90;;;30.24;63.08;95270.00;2223553;55;31877;-57
2021/09/25 08:22:55;;;;;;;3.53;3.22;;;26.40;99.90;;;30.44;61.48;95270.00;2216244;58;25087;-56
2021/09/25 08:25:41;;;;;;;3.30;3.00;;;26.90;99.90;;;30.59;57.53;95276.00;2419497;56;25292;-56
2021/09/25 08:28:28;;;;;;;2.90;2.70;;;26.50;99.90;;;30.12;59.13;95272.00;2214380;57;25106;-56
2021/09/25 08:31:14;;;;;;;2.78;2.47;;;26.90;99.90;;;30.85;60.55;95269.00;2432454;56;25594;-56
2021/09/25 08:37:00;;;;;;;3.00;2.70;;;26.60;99.90;;;30.99;58.01;95270.00;2274563;54;32229;-55
2021/09/25 08:39:47;;;;;;;2.92;2.35;;;26.30;99.90;;;30.95;59.61;95275.00;2282926;56;25657;-55
2021/09/25 08:42:34;;;;;;;2.75;2.55;;;26.70;99.90;;;31.36;57.36;95281.00;2285047;56;25180;-56
2021/09/25 08:45:21;;;;;;;3.17;2.50;;;27.30;99.90;;;31.84;58.21;95275.00;2284402;56;25125;-56
2021/09/25 08:48:07;;;;;;;3.03;2.42;;;27.50;99.90;;;32.27;53.84;95279.00;2518023;55;25606;-55
2021/09/25 08:50:54;;;;;;;2.62;2.42;;;27.70;99.90;;;32.84;54.59;95283.00;2284188;56;26265;-55
2021/09/25 08:53:40;;;;;;;3.15;2.37;;;27.80;99.90;;;32.15;53.50;95279.00;2518401;55;25069;-55
2021/09/25 08:56:27;;;;;;;2.83;2.37;;;28.10;99.90;;;33.32;52.46;95278.00;2294070;55;25116;-56
2021/09/25 08:59:14;;;;;;;2.45;2.25;;;28.70;99.90;;;33.37;50.80;95277.00;2247092;55;25083;-56
2021/09/25 09:05:08;;;;;;;2.60;2.40;;;27.90;99.90;;;32.96;51.34;95261.00;2245334;56;32739;-56
2021/09/25 09:07:56;;;;;;;2.40;2.20;;;28.40;99.90;;;33.06;51.61;95269.00;2245716;56;25550;-56
2021/09/25 09:10:42;;;;;;;3.62;2.50;;;28.70;99.90;;;32.63;59.17;95260.00;2479129;55;25084;-55
2021/09/25 09:13:30;;;;;;;2.60;2.40;;;29.00;99.90;;;33.05;58.71;95257.00;2234029;56;25100;-56
2021/09/25 09:19:20;;;;;;;3.03;2.00;;;30.00;99.90;;;34.92;54.09;95260.00;2251843;54;32225;-55
2021/09/25 09:22:07;;;;;;;2.62;2.20;;;30.30;99.90;;;35.12;47.56;95254.00;2244570;55;25735;-56
2021/09/25 09:24:56;;;;;;;3.33;2.30;;;30.40;99.90;;;35.06;44.42;95255.00;2451750;56;25528;-55
2021/09/25 09:30:52;;;;;;;2.47;2.28;;;29.40;99.90;;;34.37;45.09;95249.00;2282761;54;32297;-55
2021/09/25 09:33:42;;;;;;;3.30;2.30;;;30.10;99.90;;;34.82;42.31;95251.00;2249319;56;25112;-55
2021/09/25 09:36:34;;;;;;;3.78;2.40;;;29.90;99.90;;;34.40;47.26;95242.00;2462225;56;25137;-56
2021/09/25 09:39:23;;;;;;;2.45;2.10;;;30.40;99.90;;;35.44;44.57;95251.00;2239773;57;25125;-56
2021/09/25 09:42:09;;;;;;;2.60;2.10;;;30.70;99.90;;;35.79;43.53;95244.00;2478242;55;25078;-55
2021/09/25 09:44:56;;;;;;;2.22;2.03;;;31.10;99.90;;;35.87;41.26;95247.00;2291968;55;25534;-55
2021/09/25 09:47:46;;;;;;;2.40;2.20;;;31.10;99.90;;;36.35;38.93;95239.00;2292880;55;25537;-55
2021/09/25 09:50:38;;;;;;;2.35;2.15;;;31.70;99.90;;;36.75;39.60;95237.00;2292547;55;25118;-55
2021/09/25 09:53:29;;;;;;;2.42;2.20;;;32.50;99.90;;;37.01;39.66;95229.00;2514582;55;25477;-56
2021/09/25 09:56:22;;;;;;;3.40;2.37;;;32.10;99.90;;;37.06;42.72;95223.00;2286339;55;25124;-56
2021/09/25 09:59:09;;;;;;;2.33;2.12;;;32.20;99.90;;;37.04;39.01;95231.00;2529600;54;25617;-55
2021/09/25 10:01:56;;;;;;;2.62;2.35;;;32.20;99.90;;;37.40;36.48;95234.00;2292252;55;25080;-55
2021/09/25 10:04:43;;;;;;;2.20;2.00;;;32.60;99.90;;;37.47;37.86;95231.00;2265321;55;25634;-55
2021/09/25 10:07:31;;;;;;;2.28;2.10;;;32.50;99.90;;;37.94;36.25;95231.00;2494951;54;25130;-56
2021/09/25 10:10:18;;;;;;;3.92;2.35;;;32.80;99.90;;;38.10;40.30;95230.00;2265811;55;25082;-55
2021/09/25 10:13:04;;;;;;;3.50;2.50;;;33.10;99.90;;;38.78;36.99;95225.00;2495221;54;25146;-55
2021/09/25 10:15:51;;;;;;;2.37;2.17;;;32.80;99.90;;;37.46;38.51;95224.00;2266124;55;25071;-57
2021/09/25 10:18:38;;;;;;;2.40;2.20;;;33.00;99.90;;;38.57;33.00;95221.00;2495188;54;25121;-56
2021/09/25 10:21:27;;;;;;;2.40;2.17;;;32.80;99.90;;;38.41;33.51;95221.00;2266598;55;25074;-56
2021/09/25 10:24:20;;;;;;;2.22;2.03;;;32.70;99.90;;;38.45;32.22;95213.00;2495553;54;25158;-55
2021/09/25 10:27:08;;;;;;;2.30;2.10;;;32.70;99.90;;;37.73;35.21;95209.00;2495306;54;25214;-56
2021/09/25 10:29:54;;;;;;;2.92;1.90;;;32.90;99.90;;;37.46;35.23;95215.00;2269934;56;25097;-56
2021/09/25 10:32:44;;;;;;;2.60;2.00;;;33.20;99.90;;;38.61;34.49;95207.00;2266643;55;25502;-55
2021/09/25 10:35:30;;;;;;;3.20;2.10;;;33.50;99.90;;;38.38;30.22;95206.00;2266705;55;25563;-55
2021/09/25 10:38:34;;;;;;;2.30;2.10;;;33.30;99.90;;;37.81;32.34;95205.00;2266410;55;25090;-55
2021/09/25 10:41:21;;;;;;;3.30;2.20;;;33.70;99.90;;;39.21;31.17;95208.00;2265787;55;25034;-56
2021/09/25 10:47:24;;;;;;;1.90;1.80;;;33.50;99.90;;;39.28;30.17;95202.00;2262939;55;32330;-55
2021/09/25 10:50:16;;;;;;;2.03;1.83;;;33.30;99.90;;;38.66;28.93;95203.00;2235147;56;25115;-55
2021/09/25 10:53:13;;;;;;;2.33;1.90;;;33.10;99.90;;;36.82;28.07;95188.00;2238898;56;25090;-56
2021/09/25 10:56:03;;;;;;;1.87;1.77;;;33.10;99.90;;;37.11;28.74;95187.00;2453807;55;25092;-56
2021/09/25 10:58:55;;;;;;;2.20;2.00;;;33.10;99.90;;;36.68;31.50;95185.00;2237754;55;25112;-55
2021/09/25 11:01:43;;;;;;;1.98;1.80;;;32.70;99.90;;;36.58;31.55;95198.00;2267349;56;26152;-56
2021/09/25 11:04:34;;;;;;;2.75;1.90;;;32.70;99.90;;;36.90;33.76;95189.00;2261347;56;25132;-56
2021/09/25 11:07:37;;;;;;;2.50;2.30;;;32.90;99.90;;;37.14;30.78;95183.00;2268239;56;25518;-55
2021/09/25 11:14:14;;;;;;;2.05;1.90;;;32.20;99.90;;;36.58;33.13;95179.00;2273312;55;32306;-58
2021/09/25 11:17:05;;;;;;;2.92;2.10;;;32.40;99.90;;;36.97;33.82;95177.00;2475879;55;25150;-56
2021/09/25 11:19:56;;;;;;;3.10;2.00;;;32.30;99.90;;;37.47;32.57;95171.00;2242714;55;25155;-55
2021/09/25 11:22:45;;;;;;;2.87;2.10;;;32.80;99.90;;;37.60;29.46;95169.00;2455186;55;25107;-56
2021/09/25 11:25:32;;;;;;;2.33;2.05;;;33.10;99.90;;;37.61;31.59;95156.00;2255587;55;25149;-55
2021/09/25 11:28:23;;;;;;;2.00;1.90;;;33.10;99.90;;;36.97;30.29;95160.00;2494048;55;25113;-56
2021/09/25 11:31:11;;;;;;;2.37;1.90;;;32.60;99.90;;;35.94;32.83;95158.00;2267875;55;25141;-55
2021/09/25 11:33:57;;;;;;;2.95;2.17;;;32.50;99.90;;;35.09;32.48;95161.00;2267682;55;25109;-56
2021/09/25 11:39:50;;;;;;;3.60;2.00;;;31.50;99.90;;;34.45;37.59;95144.00;2252130;54;32366;-57
2021/09/25 11:42:36;;;;;;;2.00;1.80;;;31.40;99.90;;;34.50;39.51;95142.00;2236338;56;25103;-57
2021/09/25 11:45:22;;;;;;;3.03;2.05;;;31.90;99.90;;;34.84;34.93;95145.00;2459215;55;25080;-58
2021/09/25 11:48:11;;;;;;;2.30;2.10;;;31.60;99.90;;;34.58;39.59;95136.00;2235810;56;25160;-57
2021/09/25 11:51:01;;;;;;;2.17;1.95;;;31.80;99.90;;;34.28;35.41;95137.00;2458607;56;25613;-57
2021/09/25 11:53:53;;;;;;;2.30;1.98;;;31.20;99.90;;;32.65;36.76;95139.00;2236215;56;25089;-57
2021/09/25 11:56:39;;;;;;;2.30;2.10;;;30.50;99.90;;;31.55;37.10;95138.00;2235835;56;25138;-57
2021/09/25 11:59:26;;;;;;;2.35;2.10;;;30.80;99.90;;;32.39;40.02;95138.00;2236390;56;25133;-57
2021/09/25 12:02:35;;;;;;;2.25;2.05;;;30.80;99.90;;;32.79;39.38;95130.00;2458762;55;25113;-57
2021/09/25 12:05:38;;;;;;;2.20;2.00;;;30.90;99.90;;;32.85;44.39;95127.00;2258621;55;25471;-58
2021/09/25 12:08:27;;;;;;;2.33;2.15;;;31.30;99.90;;;33.01;42.18;95133.00;2494770;55;25763;-57
2021/09/25 12:11:13;;;;;;;2.92;2.10;;;31.30;99.90;;;32.59;38.92;95130.00;2265967;55;25107;-57
2021/09/25 12:13:59;;;;;;;4.28;1.95;;;29.90;99.90;;;30.65;41.76;95135.00;2494613;55;25075;-57
2021/09/25 12:16:58;;;;;;;2.00;1.80;;;29.40;99.90;;;30.18;43.18;95128.00;2266199;55;26172;-57
2021/09/25 12:19:46;;;;;;;3.45;2.00;;;29.40;99.90;;;29.90;42.69;95126.00;2271126;56;26128;-57
2021/09/25 12:22:33;;;;;;;2.53;2.00;;;28.90;99.90;;;29.38;49.79;95121.00;2494848;55;26125;-57
2021/09/25 12:25:19;;;;;;;3.90;2.42;;;28.80;99.90;;;29.43;46.06;95120.00;2254934;56;25090;-56
2021/09/25 12:28:25;;;;;;;2.10;1.90;;;28.90;99.90;;;29.54;52.62;95109.00;2249697;56;25141;-57
2021/09/25 12:31:16;;;;;;;2.30;2.00;;;29.00;99.90;;;29.19;44.62;95108.00;2266917;55;25080;-57
2021/09/25 12:34:05;;;;;;;2.37;1.85;;;28.80;99.90;;;29.19;48.32;95111.00;2245755;56;25146;-57
2021/09/25 12:36:53;;;;;;;3.35;2.10;;;28.30;99.90;;;28.09;52.34;95102.00;2480052;55;26163;-57
2021/09/25 12:39:44;;;;;;;2.35;2.12;;;27.90;99.90;;;27.58;58.34;95104.00;2234939;56;26131;-57
2021/09/25 12:42:32;;;;;;;2.35;1.90;;;27.70;99.90;;;27.50;59.64;95102.00;2474790;55;26153;-57
2021/09/25 12:45:18;;;;;;;3.45;2.00;;;27.30;99.90;;;27.29;60.98;95095.00;2244654;56;26132;-58
2021/09/25 12:48:15;;;;;;;3.12;1.98;;;27.00;99.90;;;27.11;64.57;95109.00;2240362;56;26597;-57